Time;durP1;ratioP1;P1;durP2;ratioP2;P2;SDS_P1;SDS_P2;PMS_P1;PMS_P2;Temp;Humidity;BMP_temperature;BMP_pressure;BME280_temperature;BME280_humidity;BME280_pressure;Samples;Min_cycle;Max_cycle;Signal;HPM_P1;HPM_P2
2022/11/10 00:01:20;;;;;;;10.70;9.60;;;10.00;99.90;;;;;;5113008;28;20264;-75
2022/11/10 00:03:54;;;;;;;11.13;9.93;;;10.00;99.90;;;;;;5111120;28;20210;-75
2022/11/10 00:06:22;;;;;;;11.13;9.90;;;10.00;99.90;;;;;;5092811;28;20611;-75
2022/11/10 00:08:51;;;;;;;10.43;9.33;;;10.00;99.90;;;;;;5092345;28;20210;-76
2022/11/10 00:11:22;;;;;;;10.73;9.63;;;10.00;99.90;;;;;;5092767;28;20210;-75
2022/11/10 00:19:25;;;;;;;10.57;9.17;;;9.90;99.90;;;;;;5092412;28;20237;-76
2022/11/10 00:21:53;;;;;;;11.17;9.53;;;9.90;99.90;;;;;;5091528;28;20571;-74
2022/11/10 00:24:24;;;;;;;11.10;9.57;;;9.90;99.90;;;;;;5092818;28;20214;-76
2022/11/10 00:27:00;;;;;;;10.67;9.50;;;9.90;99.90;;;;;;5092376;28;20206;-74
2022/11/10 00:29:30;;;;;;;11.17;10.03;;;9.90;99.90;;;;;;5096092;28;20213;-75
2022/11/10 00:31:58;;;;;;;10.97;9.83;;;9.90;99.90;;;;;;5113089;28;20202;-75
2022/11/10 00:34:27;;;;;;;10.93;9.83;;;9.90;99.90;;;;;;5112565;28;20209;-75
2022/11/10 00:36:55;;;;;;;11.20;9.97;;;9.90;99.90;;;;;;5112794;28;20214;-76
2022/11/10 00:39:26;;;;;;;11.03;9.67;;;9.90;99.90;;;;;;5096069;28;20249;-75
2022/11/10 00:41:55;;;;;;;9.97;8.93;;;9.90;99.90;;;;;;5092100;28;20214;-75
2022/11/10 00:44:23;;;;;;;12.17;9.73;;;9.90;99.90;;;;;;5092498;28;20211;-75
2022/11/10 00:46:51;;;;;;;10.03;9.03;;;9.90;99.90;;;;;;5092227;28;20214;-74
2022/11/10 00:49:20;;;;;;;11.27;9.10;;;9.90;99.90;;;;;;5091587;28;20656;-74
2022/11/10 00:51:56;;;;;;;10.07;9.00;;;9.90;99.90;;;;;;5092300;28;20187;-77
2022/11/10 00:54:24;;;;;;;11.10;9.90;;;9.80;99.90;;;;;;5092135;28;20669;-76
2022/11/10 00:56:52;;;;;;;12.10;9.40;;;9.90;99.90;;;;;;5094708;28;20682;-75
2022/11/10 00:59:23;;;;;;;11.00;9.57;;;9.90;99.90;;;;;;5112636;28;20230;-74
2022/11/10 01:01:52;;;;;;;11.17;9.90;;;9.90;99.90;;;;;;5119230;28;20226;-75
2022/11/10 01:04:23;;;;;;;12.27;9.87;;;9.80;99.90;;;;;;5106691;28;20207;-76
2022/11/10 01:06:52;;;;;;;12.00;10.33;;;9.90;99.90;;;;;;5102313;28;20210;-76
2022/11/10 01:09:22;;;;;;;10.83;9.73;;;9.80;99.90;;;;;;5097130;28;20199;-75
2022/11/10 01:11:51;;;;;;;12.23;10.00;;;9.80;99.90;;;;;;5092671;28;20233;-74
2022/11/10 01:14:20;;;;;;;11.20;10.10;;;9.80;99.90;;;;;;5092614;28;20218;-75
2022/11/10 01:16:48;;;;;;;12.20;10.33;;;9.80;99.90;;;;;;5091822;28;20210;-75
2022/11/10 01:19:16;;;;;;;14.07;11.20;;;9.80;99.90;;;;;;5091850;28;20222;-75
2022/11/10 01:21:49;;;;;;;14.70;11.80;;;9.80;99.90;;;;;;5091853;28;20195;-75
2022/11/10 01:24:21;;;;;;;14.43;11.73;;;9.80;99.90;;;;;;5103104;28;20213;-74
2022/11/10 01:26:50;;;;;;;15.53;12.07;;;9.80;99.90;;;;;;5112496;28;20238;-74
2022/11/10 01:29:18;;;;;;;13.77;12.27;;;9.80;99.90;;;;;;5111736;28;20210;-76
2022/11/10 01:31:46;;;;;;;16.70;11.77;;;9.90;99.90;;;;;;5108486;28;20275;-77
2022/11/10 01:34:14;;;;;;;15.10;10.13;;;9.80;99.90;;;;;;5102579;28;20198;-77
2022/11/10 01:36:42;;;;;;;13.30;9.53;;;9.70;99.90;;;;;;5096926;28;20207;-75
2022/11/10 01:39:13;;;;;;;10.77;8.80;;;9.70;99.90;;;;;;5094643;28;20214;-76
2022/11/10 01:41:44;;;;;;;10.17;8.30;;;9.70;99.90;;;;;;5115693;28;20718;-75
2022/11/10 01:44:14;;;;;;;8.87;7.60;;;9.70;99.90;;;;;;5115564;28;20190;-74
2022/11/10 01:46:47;;;;;;;11.13;7.57;;;9.70;99.90;;;;;;5115893;28;20198;-76
2022/11/10 01:49:19;;;;;;;9.13;7.30;;;9.70;99.90;;;;;;5115084;28;20205;-76
2022/11/10 01:51:51;;;;;;;9.10;7.33;;;9.70;99.90;;;;;;5115606;28;20194;-74
2022/11/10 01:54:22;;;;;;;9.97;7.57;;;9.70;99.90;;;;;;5115352;28;20194;-75
2022/11/10 01:56:57;;;;;;;9.60;8.13;;;9.70;99.90;;;;;;5115015;28;20218;-76
2022/11/10 01:59:30;;;;;;;10.93;8.50;;;9.70;99.90;;;;;;5097927;28;20568;-76
2022/11/10 02:02:06;;;;;;;10.20;8.40;;;9.70;99.90;;;;;;5103380;28;20262;-76
2022/11/10 02:04:36;;;;;;;12.07;9.13;;;9.70;99.90;;;;;;5115384;28;20194;-73
2022/11/10 02:07:06;;;;;;;11.83;9.17;;;9.70;99.90;;;;;;5108573;28;20210;-78
2022/11/10 02:09:34;;;;;;;11.63;9.47;;;9.60;99.90;;;;;;5094232;28;20207;-75
2022/11/10 02:12:05;;;;;;;11.53;9.87;;;9.70;99.90;;;;;;5094592;28;20210;-75
2022/11/10 02:14:35;;;;;;;12.67;9.57;;;9.70;99.90;;;;;;5094762;28;20213;-74
2022/11/10 02:17:04;;;;;;;12.70;10.17;;;9.70;99.90;;;;;;5094364;28;20211;-74
2022/11/10 02:19:40;;;;;;;13.07;10.03;;;9.70;99.90;;;;;;5093974;28;20203;-73
2022/11/10 02:22:12;;;;;;;11.80;9.33;;;9.70;99.90;;;;;;5094490;28;20202;-73
2022/11/10 02:24:40;;;;;;;13.17;9.73;;;9.70;99.90;;;;;;5093952;28;20217;-75
2022/11/10 02:27:08;;;;;;;11.23;9.37;;;9.70;99.90;;;;;;5094480;28;20216;-75
2022/11/10 02:29:36;;;;;;;11.00;8.73;;;9.70;99.90;;;;;;5093939;28;20206;-75
2022/11/10 02:32:07;;;;;;;12.97;8.83;;;9.70;99.90;;;;;;5094378;28;20200;-78
2022/11/10 02:34:36;;;;;;;13.60;10.03;;;9.70;99.90;;;;;;5094171;28;20211;-76
2022/11/10 02:37:03;;;;;;;13.97;9.37;;;9.70;99.90;;;;;;5094309;28;20236;-76
2022/11/10 02:39:36;;;;;;;12.33;8.97;;;9.70;99.90;;;;;;5093610;28;20686;-75
2022/11/10 02:42:09;;;;;;;11.53;9.07;;;9.70;99.90;;;;;;5094860;28;20211;-74
2022/11/10 02:44:37;;;;;;;12.57;8.70;;;9.70;99.90;;;;;;5114162;28;20293;-76
2022/11/10 02:47:06;;;;;;;12.77;9.20;;;9.80;99.90;;;;;;5114054;28;20244;-77
2022/11/10 02:49:34;;;;;;;10.97;8.20;;;9.70;99.90;;;;;;5118027;28;20216;-77
2022/11/10 02:52:05;;;;;;;9.77;7.10;;;9.70;99.90;;;;;;5100564;28;20210;-77
2022/11/10 02:54:38;;;;;;;8.73;6.80;;;9.60;99.90;;;;;;5093947;28;20207;-75
2022/11/10 02:57:07;;;;;;;8.20;6.60;;;9.60;99.90;;;;;;5093487;28;20221;-78
2022/11/10 02:59:35;;;;;;;8.80;5.27;;;9.50;99.90;;;;;;5093911;28;20217;-76
2022/11/10 03:02:03;;;;;;;6.13;4.53;;;9.50;99.90;;;;;;5093214;28;20230;-76
2022/11/10 03:04:33;;;;;;;5.60;4.23;;;9.40;99.90;;;;;;5093789;28;20549;-74
2022/11/10 03:07:01;;;;;;;6.13;3.87;;;9.40;99.90;;;;;;5093393;28;20213;-76
2022/11/10 03:09:29;;;;;;;7.20;4.27;;;9.30;99.90;;;;;;5102234;28;20207;-76
2022/11/10 03:12:01;;;;;;;5.97;4.20;;;9.30;99.90;;;;;;5113609;28;20198;-76
2022/11/10 03:14:29;;;;;;;5.57;4.33;;;9.40;99.90;;;;;;5114105;28;20190;-76
2022/11/10 03:16:57;;;;;;;4.90;4.23;;;9.30;99.90;;;;;;5113746;28;20248;-76
2022/11/10 03:19:25;;;;;;;7.10;4.00;;;9.40;99.90;;;;;;5096781;28;20210;-74
2022/11/10 03:21:56;;;;;;;7.03;4.20;;;9.40;99.90;;;;;;5093215;28;20250;-74
2022/11/10 03:24:24;;;;;;;5.93;4.27;;;9.30;99.90;;;;;;5093419;28;20549;-75
2022/11/10 03:26:52;;;;;;;5.00;3.77;;;9.30;99.90;;;;;;5093062;28;20290;-76
2022/11/10 03:29:21;;;;;;;6.73;3.93;;;9.30;99.90;;;;;;5093011;28;20211;-75
2022/11/10 03:31:49;;;;;;;4.67;3.00;;;9.30;99.90;;;;;;5092992;28;20202;-76
2022/11/10 03:34:18;;;;;;;4.73;3.00;;;9.30;99.90;;;;;;5093259;28;20209;-75
2022/11/10 03:36:46;;;;;;;4.63;2.90;;;9.30;99.90;;;;;;5097866;28;20213;-75
2022/11/10 03:39:14;;;;;;;5.37;2.73;;;9.20;99.90;;;;;;5092590;28;20697;-75
2022/11/10 03:41:43;;;;;;;6.20;2.83;;;9.20;99.90;;;;;;5093009;28;20241;-77
2022/11/10 03:44:13;;;;;;;5.23;2.70;;;9.20;99.90;;;;;;5093404;28;20300;-76
2022/11/10 03:46:43;;;;;;;4.93;2.80;;;9.30;99.90;;;;;;5112406;28;20213;-76
2022/11/10 03:49:18;;;;;;;5.27;2.37;;;9.20;99.90;;;;;;5113507;28;20189;-76
2022/11/10 03:51:50;;;;;;;5.63;2.60;;;9.20;99.90;;;;;;5113462;28;20241;-75
2022/11/10 03:54:18;;;;;;;4.93;2.63;;;9.10;99.90;;;;;;5101283;28;20637;-76
2022/11/10 03:56:47;;;;;;;7.43;3.20;;;9.10;99.90;;;;;;5092195;28;20211;-75
2022/11/10 03:59:17;;;;;;;4.37;2.37;;;9.10;99.90;;;;;;5102782;28;20202;-75
2022/11/10 04:01:46;;;;;;;5.30;2.40;;;9.10;99.90;;;;;;5113412;28;20230;-74
2022/11/10 04:09:48;;;;;;;5.40;2.60;;;9.10;99.90;;;;;;5113503;28;20618;-75
2022/11/10 04:17:50;;;;;;;5.50;2.10;;;9.00;99.90;;;;;;5113200;27;20626;-76
2022/11/10 04:20:18;;;;;;;8.73;2.40;;;9.00;99.90;;;;;;5135313;28;20194;-74
2022/11/10 04:26:27;;;;;;;3.57;2.13;;;9.00;99.90;;;;;;5134834;28;20193;-74
2022/11/10 04:28:20;;;;;;;6.77;2.67;;;9.10;99.90;;;;;;5134476;28;20217;-77
2022/11/10 04:30:48;;;;;;;7.37;2.50;;;8.90;99.90;;;;;;5133710;28;20205;-74
2022/11/10 04:33:18;;;;;;;5.87;2.70;;;8.90;99.90;;;;;;5136193;28;20201;-75
2022/11/10 04:35:48;;;;;;;8.53;2.70;;;8.90;99.90;;;;;;5138312;28;20186;-75
2022/11/10 04:38:16;;;;;;;9.37;2.90;;;8.90;99.90;;;;;;5137005;28;20235;-76
2022/11/10 04:40:46;;;;;;;5.47;2.60;;;9.00;99.90;;;;;;5139491;28;20209;-76
2022/11/10 04:43:15;;;;;;;5.67;2.87;;;8.90;99.90;;;;;;5141613;28;20225;-75
2022/11/10 04:45:46;;;;;;;4.10;2.60;;;8.90;99.90;;;;;;5135082;28;20258;-74
2022/11/10 04:48:14;;;;;;;8.03;2.60;;;8.90;99.90;;;;;;5135320;28;20206;-74
2022/11/10 04:50:44;;;;;;;6.87;2.90;;;9.00;99.90;;;;;;5133587;28;20307;-75
2022/11/10 04:53:13;;;;;;;8.90;3.07;;;8.90;99.90;;;;;;5136626;28;20218;-75
2022/11/10 04:55:42;;;;;;;6.07;2.93;;;8.90;99.90;;;;;;5134596;28;20214;-75
2022/11/10 04:58:11;;;;;;;5.00;3.10;;;8.90;99.90;;;;;;5121549;28;20213;-77
2022/11/10 05:00:39;;;;;;;6.20;3.20;;;8.90;99.90;;;;;;5120378;28;20233;-77
2022/11/10 05:03:10;;;;;;;6.50;3.10;;;8.90;99.90;;;;;;5121937;28;20218;-76
2022/11/10 05:05:40;;;;;;;5.03;3.00;;;8.90;99.90;;;;;;5112467;28;20235;-75
2022/11/10 05:08:10;;;;;;;5.93;3.37;;;8.90;99.90;;;;;;5125537;27;20796;-75
2022/11/10 05:10:38;;;;;;;10.40;3.93;;;8.90;99.90;;;;;;5136839;27;20190;-75
2022/11/10 05:13:07;;;;;;;7.40;3.70;;;8.90;99.90;;;;;;5136881;27;20209;-76
2022/11/10 05:15:35;;;;;;;7.90;3.53;;;8.80;99.90;;;;;;5124492;27;20661;-75
2022/11/10 05:18:08;;;;;;;5.40;3.60;;;8.80;99.90;;;;;;5095847;28;20302;-76
2022/11/10 05:20:36;;;;;;;8.50;3.87;;;8.80;99.90;;;;;;5095398;28;20183;-76
2022/11/10 05:25:52;;;;;;;9.17;3.67;;;8.90;99.90;;;;;;5134167;27;20245;-75
2022/11/10 05:28:20;;;;;;;9.47;4.13;;;8.80;99.90;;;;;;5136414;27;20546;-76
2022/11/10 05:30:52;;;;;;;8.37;3.70;;;8.80;99.90;;;;;;5136351;27;20202;-74
2022/11/10 05:33:20;;;;;;;7.67;3.93;;;8.80;99.90;;;;;;5135853;27;20201;-75
2022/11/10 05:35:49;;;;;;;6.87;4.00;;;8.80;99.90;;;;;;5115236;28;20206;-75
2022/11/10 05:38:19;;;;;;;11.33;4.00;;;8.80;99.90;;;;;;5115951;28;20187;-74
2022/11/10 05:40:48;;;;;;;8.17;4.10;;;8.80;99.90;;;;;;5118705;27;20205;-75
2022/11/10 05:43:18;;;;;;;7.67;4.40;;;8.80;99.90;;;;;;5135814;27;20221;-75
2022/11/10 05:45:46;;;;;;;12.13;9.17;;;8.70;99.90;;;;;;5136450;27;20273;-76
2022/11/10 05:48:14;;;;;;;13.83;11.53;;;8.70;99.90;;;;;;5135398;27;20248;-76
2022/11/10 05:50:43;;;;;;;14.30;11.27;;;8.80;99.90;;;;;;5135282;27;20217;-75
2022/11/10 05:53:12;;;;;;;14.20;10.17;;;8.70;99.90;;;;;;5135597;27;20689;-75
2022/11/10 05:55:40;;;;;;;14.30;8.00;;;8.70;99.90;;;;;;5132441;27;20216;-75
2022/11/10 05:58:08;;;;;;;10.23;5.43;;;8.70;99.90;;;;;;5125850;27;20267;-76
2022/11/10 06:00:40;;;;;;;10.73;4.63;;;8.60;99.90;;;;;;5135777;27;20222;-75
2022/11/10 06:03:14;;;;;;;7.73;4.87;;;8.60;99.90;;;;;;5136111;27;20206;-75
2022/11/10 06:05:45;;;;;;;9.77;5.60;;;8.60;99.90;;;;;;5133742;27;20262;-76
2022/11/10 06:08:16;;;;;;;8.20;5.30;;;8.60;99.90;;;;;;5135911;27;20308;-76
2022/11/10 06:10:44;;;;;;;8.47;4.87;;;8.60;99.90;;;;;;5136179;27;20178;-75
2022/11/10 06:13:13;;;;;;;6.83;4.77;;;8.60;99.90;;;;;;5128282;27;20716;-74
2022/11/10 06:15:43;;;;;;;7.73;5.27;;;8.60;99.90;;;;;;5117149;28;20217;-74
2022/11/10 06:18:17;;;;;;;9.17;5.17;;;8.60;99.90;;;;;;5115636;28;20282;-75
2022/11/10 06:20:46;;;;;;;9.07;5.50;;;8.60;99.90;;;;;;5114577;28;20217;-75
2022/11/10 06:23:14;;;;;;;8.50;5.50;;;8.60;99.90;;;;;;5126564;27;20225;-75
2022/11/10 06:25:43;;;;;;;9.30;5.90;;;8.60;99.90;;;;;;5135966;27;20216;-75
2022/11/10 06:28:13;;;;;;;11.93;6.43;;;8.50;99.90;;;;;;5135716;27;20296;-75
2022/11/10 06:30:46;;;;;;;12.07;5.97;;;8.50;99.90;;;;;;5126136;27;20205;-75
2022/11/10 06:33:15;;;;;;;9.00;5.70;;;8.50;99.90;;;;;;5115595;28;20232;-75
2022/11/10 06:35:43;;;;;;;8.10;6.30;;;8.50;99.90;;;;;;5114811;28;20214;-74
2022/11/10 06:38:12;;;;;;;11.17;6.40;;;8.40;99.90;;;;;;5114825;28;20214;-75
2022/11/10 06:40:40;;;;;;;13.03;6.40;;;8.50;99.90;;;;;;5124551;27;20229;-75
2022/11/10 06:43:08;;;;;;;12.87;9.20;;;8.40;99.90;;;;;;5135368;27;20308;-74
2022/11/10 06:45:36;;;;;;;14.63;12.17;;;8.40;99.90;;;;;;5135188;27;20209;-76
2022/11/10 06:48:08;;;;;;;16.20;12.97;;;8.40;99.90;;;;;;5134993;27;20667;-76
2022/11/10 06:50:38;;;;;;;12.83;7.80;;;8.40;99.90;;;;;;5099993;27;20199;-74
2022/11/10 06:53:10;;;;;;;14.07;7.80;;;8.40;99.90;;;;;;5093849;28;20192;-75
2022/11/10 06:55:39;;;;;;;11.50;7.23;;;8.40;99.90;;;;;;5108134;28;20698;-76
2022/11/10 06:58:07;;;;;;;12.47;7.30;;;8.30;99.90;;;;;;5129160;27;20674;-76
2022/11/10 07:00:35;;;;;;;10.77;6.67;;;8.30;99.90;;;;;;5134406;27;20229;-75
2022/11/10 07:03:05;;;;;;;10.43;6.73;;;8.20;99.90;;;;;;5134761;27;20236;-73
2022/11/10 07:05:34;;;;;;;12.53;7.20;;;8.20;99.90;;;;;;5127617;27;20214;-76
2022/11/10 07:08:04;;;;;;;11.00;7.27;;;8.20;99.90;;;;;;5114395;28;20202;-76
2022/11/10 07:10:33;;;;;;;11.43;6.93;;;8.10;99.90;;;;;;5105730;28;20551;-74
2022/11/10 07:13:02;;;;;;;9.07;7.00;;;8.20;99.90;;;;;;5114707;28;20195;-74
2022/11/10 07:15:33;;;;;;;10.63;7.00;;;8.10;99.90;;;;;;5130875;27;20205;-76
2022/11/10 07:18:02;;;;;;;10.63;7.47;;;8.10;99.90;;;;;;5134516;27;20204;-76
2022/11/10 07:20:32;;;;;;;14.03;7.20;;;8.10;99.90;;;;;;5134531;27;20205;-76
2022/11/10 07:23:01;;;;;;;9.57;6.97;;;8.10;99.90;;;;;;5134577;27;20229;-75
2022/11/10 07:25:34;;;;;;;11.87;7.87;;;8.10;99.90;;;;;;5105541;28;20217;-74
2022/11/10 07:28:04;;;;;;;11.33;6.47;;;8.00;99.90;;;;;;5114083;28;20597;-76
2022/11/10 07:30:34;;;;;;;9.77;6.53;;;8.10;99.90;;;;;;5113746;28;20228;-76
2022/11/10 07:33:07;;;;;;;12.40;7.00;;;8.10;99.90;;;;;;5129571;27;20204;-74
2022/11/10 07:35:37;;;;;;;12.40;8.07;;;8.10;99.90;;;;;;5134974;27;20619;-76
2022/11/10 07:38:07;;;;;;;14.60;7.50;;;8.00;99.90;;;;;;5134288;27;20192;-74
2022/11/10 07:40:36;;;;;;;12.23;7.00;;;8.10;99.90;;;;;;5133502;27;20673;-75
2022/11/10 07:43:05;;;;;;;9.70;6.50;;;8.20;99.90;;;;;;5093537;28;20233;-76
2022/11/10 07:45:36;;;;;;;11.37;6.10;;;8.30;99.90;;;;;;5085816;28;20213;-76
2022/11/10 07:48:05;;;;;;;9.37;5.20;;;8.50;99.90;;;;;;5095911;28;20190;-75
2022/11/10 07:50:34;;;;;;;7.33;4.40;;;8.70;99.90;;;;;;5095609;28;20449;-78
2022/11/10 07:53:06;;;;;;;6.53;3.50;;;9.10;99.90;;;;;;5113705;28;20212;-75
2022/11/10 07:55:36;;;;;;;5.27;3.10;;;9.50;99.90;;;;;;5113510;28;20206;-75
2022/11/10 07:58:04;;;;;;;7.20;3.20;;;9.80;99.90;;;;;;5113502;28;20228;-76
2022/11/10 08:00:33;;;;;;;6.17;3.50;;;10.20;99.90;;;;;;5113959;28;20234;-76
2022/11/10 08:03:04;;;;;;;5.43;2.87;;;10.50;99.90;;;;;;5113943;28;20257;-76
2022/11/10 08:05:38;;;;;;;4.77;2.40;;;10.80;99.90;;;;;;5113573;28;20598;-77
2022/11/10 08:08:08;;;;;;;5.17;2.60;;;11.20;99.90;;;;;;5114520;28;20206;-76
2022/11/10 08:10:36;;;;;;;4.10;2.57;;;11.30;99.90;;;;;;5124668;27;20201;-76
2022/11/10 08:13:07;;;;;;;3.90;2.50;;;11.20;99.90;;;;;;5134052;27;20224;-75
2022/11/10 08:15:36;;;;;;;4.93;2.40;;;11.00;99.90;;;;;;5133651;27;20682;-76
2022/11/10 08:18:06;;;;;;;5.80;2.47;;;11.00;99.90;;;;;;5133584;27;20217;-76
2022/11/10 08:20:34;;;;;;;10.43;2.60;;;10.90;99.90;;;;;;5119312;27;20553;-76
2022/11/10 08:23:04;;;;;;;5.30;2.60;;;10.80;99.90;;;;;;5113639;28;20210;-77
2022/11/10 08:25:35;;;;;;;3.90;2.27;;;10.90;99.90;;;;;;5117067;28;20201;-78
2022/11/10 08:28:08;;;;;;;4.67;2.40;;;11.20;99.90;;;;;;5117117;28;20208;-76
2022/11/10 08:30:38;;;;;;;8.03;2.40;;;11.10;99.90;;;;;;5134944;28;20202;-76
2022/11/10 08:33:12;;;;;;;6.73;2.20;;;11.40;99.90;;;;;;5150904;28;20181;-75
2022/11/10 08:35:45;;;;;;;5.67;2.17;;;11.30;99.90;;;;;;5153701;28;20209;-77
2022/11/10 08:38:16;;;;;;;3.97;2.13;;;11.60;99.90;;;;;;5152590;28;20205;-77
2022/11/10 08:40:49;;;;;;;5.20;2.10;;;12.00;99.90;;;;;;5139972;28;20206;-77
2022/11/10 08:43:19;;;;;;;3.60;1.80;;;12.80;99.90;;;;;;5136712;27;20205;-78
2022/11/10 08:45:54;;;;;;;3.97;1.53;;;13.90;99.90;;;;;;5138411;27;20632;-78
2022/11/10 08:48:23;;;;;;;4.10;1.70;;;14.90;99.90;;;;;;5136349;27;20220;-80
2022/11/10 08:50:51;;;;;;;4.40;1.70;;;15.70;99.90;;;;;;5137976;27;20304;-80
2022/11/10 08:53:22;;;;;;;5.53;1.80;;;16.70;99.90;;;;;;5137583;27;20209;-81
2022/11/10 08:55:58;;;;;;;3.07;1.60;;;16.80;99.90;;;;;;5135568;27;20244;-80
2022/11/10 08:58:26;;;;;;;3.83;1.60;;;17.10;99.90;;;;;;5137514;27;20227;-79
2022/11/10 09:00:54;;;;;;;4.13;1.80;;;17.60;99.90;;;;;;5137328;27;20244;-81
2022/11/10 09:03:24;;;;;;;3.65;1.83;;;18.70;99.90;;;;;;5137794;27;20230;-79
2022/11/10 09:05:57;;;;;;;4.30;2.10;;;19.50;99.90;;;;;;5135067;27;20205;-79
2022/11/10 09:08:26;;;;;;;8.65;5.63;;;19.20;99.90;;;;;;5137649;27;20210;-81
2022/11/10 09:10:57;;;;;;;4.57;2.50;;;18.90;99.90;;;;;;5137139;27;20254;-78
2022/11/10 09:13:25;;;;;;;3.30;1.60;;;18.40;99.90;;;;;;5129832;27;20206;-78
2022/11/10 09:16:01;;;;;;;5.25;1.80;;;18.70;99.90;;;;;;5117017;28;20193;-81
2022/11/10 09:18:32;;;;;;;4.13;1.80;;;18.40;99.90;;;;;;5117087;28;20608;-80
2022/11/10 09:21:02;;;;;;;4.85;1.92;;;17.90;99.90;;;;;;5116813;28;20217;-80
2022/11/10 09:23:30;;;;;;;5.53;1.83;;;18.20;99.90;;;;;;5117015;27;20206;-80
2022/11/10 09:26:00;;;;;;;3.63;1.60;;;18.50;99.90;;;;;;5116542;28;20755;-78
2022/11/10 09:28:28;;;;;;;3.73;1.70;;;18.40;99.90;;;;;;5116874;28;20206;-80
2022/11/10 09:30:56;;;;;;;5.17;2.10;;;17.40;99.90;;;;;;5121559;27;20216;-79
2022/11/10 09:33:27;;;;;;;4.50;1.63;;;17.00;99.90;;;;;;5136920;27;20210;-78
2022/11/10 09:35:58;;;;;;;3.50;1.90;;;16.80;99.90;;;;;;5137929;27;20245;-80
2022/11/10 09:38:26;;;;;;;4.83;1.90;;;16.40;99.90;;;;;;5107060;27;20207;-79
2022/11/10 09:41:02;;;;;;;3.77;1.80;;;15.60;99.90;;;;;;5107883;28;20203;-80
2022/11/10 09:43:39;;;;;;;3.83;1.80;;;15.00;99.90;;;;;;5112310;28;20213;-78
2022/11/10 09:46:14;;;;;;;3.57;1.80;;;15.30;99.90;;;;;;5097233;28;20191;-79
2022/11/10 09:48:48;;;;;;;6.27;2.07;;;15.20;99.90;;;;;;5096803;28;20214;-78
2022/11/10 09:51:19;;;;;;;5.37;1.80;;;15.50;99.90;;;;;;5097052;28;20683;-78
2022/11/10 09:53:54;;;;;;;4.40;1.50;;;15.70;99.90;;;;;;5096214;28;20210;-80
2022/11/10 09:56:31;;;;;;;3.07;1.60;;;16.50;99.90;;;;;;5134141;27;20300;-80
2022/11/10 09:59:07;;;;;;;5.00;1.90;;;17.20;99.90;;;;;;5138039;27;20335;-81
2022/11/10 10:01:48;;;;;;;3.83;1.30;;;18.00;99.90;;;;;;5138019;27;20228;-82
2022/11/10 10:04:44;;;;;;;5.73;1.40;;;17.90;99.90;;;;;;5121795;27;20225;-79
2022/11/10 10:07:26;;;;;;;3.43;1.67;;;17.60;99.90;;;;;;5116377;28;20197;-79
2022/11/10 10:10:02;;;;;;;3.70;1.50;;;17.00;99.90;;;;;;5116234;28;20273;-78
2022/11/10 10:12:49;;;;;;;5.10;1.70;;;15.90;99.90;;;;;;5133614;27;20255;-79
2022/11/10 10:15:28;;;;;;;4.83;1.70;;;15.20;99.90;;;;;;5137403;27;20613;-78
2022/11/10 10:18:11;;;;;;;6.20;1.90;;;14.80;99.90;;;;;;5136961;27;20589;-77
2022/11/10 10:20:48;;;;;;;4.53;1.50;;;14.90;99.90;;;;;;5135656;27;20209;-78
2022/11/10 10:23:25;;;;;;;7.63;1.87;;;14.40;99.90;;;;;;5136442;27;20288;-77
2022/11/10 10:26:16;;;;;;;6.10;1.80;;;14.10;99.90;;;;;;5136299;27;20225;-76
2022/11/10 10:28:48;;;;;;;4.90;1.73;;;13.90;99.90;;;;;;5137388;27;20643;-77
2022/11/10 10:31:26;;;;;;;4.23;1.60;;;13.70;99.90;;;;;;5095595;28;20563;-78
2022/11/10 10:33:54;;;;;;;4.53;1.53;;;13.40;99.90;;;;;;5095832;28;20214;-78
2022/11/10 10:36:26;;;;;;;3.23;1.50;;;13.50;99.90;;;;;;5096116;28;20218;-78
2022/11/10 10:38:56;;;;;;;4.83;1.50;;;14.00;99.90;;;;;;5112183;28;20224;-79
2022/11/10 10:41:26;;;;;;;3.73;1.30;;;15.00;99.90;;;;;;5115435;28;20214;-78
2022/11/10 10:43:58;;;;;;;5.27;1.60;;;15.80;99.90;;;;;;5115634;28;20628;-79
2022/11/10 10:46:28;;;;;;;6.23;2.00;;;16.60;99.90;;;;;;5115935;28;20707;-79
2022/11/10 10:49:18;;;;;;;6.63;1.70;;;17.00;99.90;;;;;;5115409;27;20213;-80
2022/11/10 10:52:05;;;;;;;5.10;1.90;;;17.40;99.90;;;;;;5115406;28;20221;-78
2022/11/10 10:54:34;;;;;;;4.63;1.70;;;17.10;99.90;;;;;;5114846;28;20277;-80
2022/11/10 10:57:06;;;;;;;4.43;1.27;;;17.40;99.90;;;;;;5131619;27;20217;-80
2022/11/10 10:59:36;;;;;;;4.30;1.67;;;17.50;99.90;;;;;;5135191;27;20205;-80
2022/11/10 11:02:21;;;;;;;4.30;1.80;;;17.80;99.90;;;;;;5135415;27;20228;-81
2022/11/10 11:04:50;;;;;;;5.40;1.90;;;18.30;99.90;;;;;;5135187;27;20225;-81
2022/11/10 11:07:24;;;;;;;5.57;1.50;;;17.80;99.90;;;;;;5134985;27;20212;-81
2022/11/10 11:09:52;;;;;;;5.83;1.83;;;17.80;99.90;;;;;;5135159;27;20208;-79
2022/11/10 11:12:27;;;;;;;2.53;1.43;;;17.00;99.90;;;;;;5133848;27;20228;-80
2022/11/10 11:15:16;;;;;;;5.07;1.97;;;17.10;99.90;;;;;;5135384;27;20189;-81
2022/11/10 11:17:54;;;;;;;4.07;1.30;;;17.50;99.90;;;;;;5135390;27;20213;-80
2022/11/10 11:20:30;;;;;;;4.73;1.43;;;17.50;99.90;;;;;;5135148;27;20199;-79
2022/11/10 11:23:07;;;;;;;4.27;1.30;;;17.40;99.90;;;;;;5133517;27;20209;-80
2022/11/10 11:25:42;;;;;;;5.60;1.40;;;17.80;99.90;;;;;;5135636;27;20201;-81
2022/11/10 11:28:18;;;;;;;2.63;1.37;;;17.50;99.90;;;;;;5136966;27;20205;-79
2022/11/10 11:30:58;;;;;;;4.17;1.37;;;17.20;99.90;;;;;;5135968;27;20193;-79
2022/11/10 11:33:38;;;;;;;3.17;1.60;;;16.00;99.90;;;;;;5132991;27;20287;-78
2022/11/10 11:36:17;;;;;;;5.03;1.37;;;15.20;99.90;;;;;;5135411;27;20202;-80
2022/11/10 11:38:55;;;;;;;4.23;1.33;;;15.00;99.90;;;;;;5133481;27;20209;-79
2022/11/10 11:41:34;;;;;;;5.60;1.40;;;14.70;99.90;;;;;;5142382;27;20572;-78
2022/11/10 11:44:19;;;;;;;4.63;1.70;;;14.60;99.90;;;;;;5143115;27;20276;-78
2022/11/10 11:46:57;;;;;;;3.60;1.30;;;14.30;99.90;;;;;;5137074;27;20228;-78
2022/11/10 11:49:50;;;;;;;3.20;1.40;;;13.90;99.90;;;;;;5125001;27;20210;-77
2022/11/10 11:52:28;;;;;;;6.10;1.87;;;13.80;99.90;;;;;;5138245;27;20213;-77
2022/11/10 11:55:11;;;;;;;4.57;1.80;;;14.00;99.90;;;;;;5138700;27;20209;-77
2022/11/10 11:57:51;;;;;;;4.57;1.40;;;13.80;99.90;;;;;;5128305;27;20218;-78
2022/11/10 12:00:21;;;;;;;4.50;1.80;;;13.50;99.90;;;;;;5101875;28;20263;-79
2022/11/10 12:03:12;;;;;;;5.37;1.73;;;13.00;99.90;;;;;;5116315;28;20262;-78
2022/11/10 12:05:52;;;;;;;7.43;2.10;;;13.00;99.90;;;;;;5124126;27;20210;-79
2022/11/10 12:08:45;;;;;;;14.87;3.10;;;13.10;99.90;;;;;;5156036;27;20265;-78
2022/11/10 12:11:27;;;;;;;13.80;3.60;;;12.80;99.90;;;;;;5135419;27;20225;-77
2022/11/10 12:14:04;;;;;;;4.57;2.03;;;12.80;99.90;;;;;;5131281;27;20563;-78
2022/11/10 12:16:34;;;;;;;4.80;1.80;;;13.00;99.90;;;;;;5114540;28;20193;-77
2022/11/10 12:19:14;;;;;;;4.47;1.80;;;13.00;99.90;;;;;;5113566;28;20182;-76
2022/11/10 12:21:49;;;;;;;7.10;1.97;;;13.00;99.90;;;;;;5114350;28;20212;-78
2022/11/10 12:24:43;;;;;;;5.40;1.80;;;13.20;99.90;;;;;;5132717;28;20236;-77
2022/11/10 12:27:15;;;;;;;2.77;1.63;;;13.40;99.90;;;;;;5134106;28;20290;-79
2022/11/10 12:29:47;;;;;;;4.03;1.33;;;13.50;99.90;;;;;;5135067;28;20190;-80
2022/11/10 12:32:27;;;;;;;2.13;1.17;;;13.70;99.90;;;;;;5131718;28;20673;-76
2022/11/10 12:35:04;;;;;;;4.83;2.47;;;13.70;99.90;;;;;;5114707;28;20201;-79
2022/11/10 12:37:36;;;;;;;4.90;2.10;;;13.60;99.90;;;;;;5113770;28;20181;-76
2022/11/10 12:40:14;;;;;;;13.77;3.40;;;13.50;99.90;;;;;;5114395;28;20193;-78
2022/11/10 12:42:51;;;;;;;24.70;3.53;;;13.50;99.90;;;;;;5093885;28;20202;-77
2022/11/10 12:45:27;;;;;;;5.73;2.20;;;13.60;99.90;;;;;;5093485;28;20199;-79
2022/11/10 12:47:56;;;;;;;4.53;2.00;;;13.50;99.90;;;;;;5093651;28;20652;-79
2022/11/10 12:50:39;;;;;;;4.80;1.80;;;13.50;99.90;;;;;;5095516;28;20227;-77
2022/11/10 12:53:15;;;;;;;3.77;1.70;;;13.70;99.90;;;;;;5099759;28;20206;-79
2022/11/10 12:55:50;;;;;;;5.20;2.10;;;13.80;99.90;;;;;;5097900;28;20211;-78
2022/11/10 12:58:25;;;;;;;3.23;1.50;;;13.60;99.90;;;;;;5092925;28;20190;-78
2022/11/10 13:00:59;;;;;;;4.40;1.63;;;13.50;99.90;;;;;;5093062;28;20230;-78
2022/11/10 13:03:30;;;;;;;6.20;2.80;;;13.40;99.90;;;;;;5092879;28;20314;-78
2022/11/10 13:06:01;;;;;;;4.50;1.83;;;13.40;99.90;;;;;;5092999;28;20504;-79
2022/11/10 13:08:33;;;;;;;4.60;1.90;;;13.40;99.90;;;;;;5093131;28;20206;-79
2022/11/10 13:11:05;;;;;;;4.53;1.93;;;13.50;99.90;;;;;;5092462;28;20210;-77
2022/11/10 13:13:45;;;;;;;4.93;2.10;;;13.30;99.90;;;;;;5104024;28;20296;-77
2022/11/10 13:16:48;;;;;;;5.40;2.10;;;13.20;99.90;;;;;;5134012;28;20201;-76
2022/11/10 13:19:50;;;;;;;3.50;1.70;;;13.00;99.90;;;;;;5134951;28;20182;-77
2022/11/10 13:22:39;;;;;;;2.67;1.40;;;13.00;99.90;;;;;;5132664;28;20215;-76
2022/11/10 13:25:59;;;;;;;4.63;1.70;;;12.80;99.90;;;;;;5134083;28;20564;-78
2022/11/10 13:28:56;;;;;;;3.47;1.50;;;12.80;99.90;;;;;;5134554;27;20220;-78
2022/11/10 13:31:41;;;;;;;7.20;1.97;;;12.80;99.90;;;;;;5137176;27;20270;-77
2022/11/10 13:34:11;;;;;;;3.87;1.87;;;12.80;99.90;;;;;;5137567;27;20219;-78
2022/11/10 13:36:44;;;;;;;5.03;1.63;;;12.80;99.90;;;;;;5137205;27;20201;-77